sensor_id;sensor_type;location;lat;lon;timestamp;temperature;humidity
24802;DHT22;12898;50.520;12.152;2024-01-30T00:01:55;2.30;98.00
24802;DHT22;12898;50.520;12.152;2024-01-30T00:04:21;2.30;98.10
24802;DHT22;12898;50.520;12.152;2024-01-30T00:06:47;2.30;98.30
24802;DHT22;12898;50.520;12.152;2024-01-30T00:09:12;2.30;98.30
24802;DHT22;12898;50.520;12.152;2024-01-30T00:11:39;2.20;98.60
24802;DHT22;12898;50.520;12.152;2024-01-30T00:14:05;2.20;98.40
24802;DHT22;12898;50.520;12.152;2024-01-30T00:16:31;2.20;98.70
24802;DHT22;12898;50.520;12.152;2024-01-30T00:18:56;2.10;98.80
24802;DHT22;12898;50.520;12.152;2024-01-30T00:21:23;2.20;99.00
24802;DHT22;12898;50.520;12.152;2024-01-30T00:23:49;2.20;99.20
24802;DHT22;12898;50.520;12.152;2024-01-30T00:26:14;2.30;98.50
24802;DHT22;12898;50.520;12.152;2024-01-30T00:28:41;2.30;98.40
24802;DHT22;12898;50.520;12.152;2024-01-30T00:31:07;2.40;98.10
24802;DHT22;12898;50.520;12.152;2024-01-30T00:33:33;2.50;97.70
24802;DHT22;12898;50.520;12.152;2024-01-30T00:35:59;2.60;97.30
24802;DHT22;12898;50.520;12.152;2024-01-30T00:38:24;2.60;97.10
24802;DHT22;12898;50.520;12.152;2024-01-30T00:40:50;2.70;96.60
24802;DHT22;12898;50.520;12.152;2024-01-30T00:43:16;2.70;96.70
24802;DHT22;12898;50.520;12.152;2024-01-30T00:45:43;2.70;96.50
24802;DHT22;12898;50.520;12.152;2024-01-30T00:48:09;2.80;95.90
24802;DHT22;12898;50.520;12.152;2024-01-30T00:50:35;2.90;96.30
24802;DHT22;12898;50.520;12.152;2024-01-30T00:53:01;2.80;96.20
24802;DHT22;12898;50.520;12.152;2024-01-30T00:55:27;2.80;96.10
24802;DHT22;12898;50.520;12.152;2024-01-30T00:57:52;2.80;95.90
24802;DHT22;12898;50.520;12.152;2024-01-30T01:00:18;2.80;95.50
24802;DHT22;12898;50.520;12.152;2024-01-30T01:02:46;2.80;95.90
24802;DHT22;12898;50.520;12.152;2024-01-30T01:05:12;2.80;95.90
24802;DHT22;12898;50.520;12.152;2024-01-30T01:07:38;2.90;95.70
24802;DHT22;12898;50.520;12.152;2024-01-30T01:10:06;2.80;95.50
24802;DHT22;12898;50.520;12.152;2024-01-30T01:12:31;2.90;95.50
24802;DHT22;12898;50.520;12.152;2024-01-30T01:14:57;2.90;95.30
24802;DHT22;12898;50.520;12.152;2024-01-30T01:17:23;3.00;95.00
24802;DHT22;12898;50.520;12.152;2024-01-30T01:19:48;3.10;94.70
24802;DHT22;12898;50.520;12.152;2024-01-30T01:22:15;3.00;94.50
24802;DHT22;12898;50.520;12.152;2024-01-30T01:24:42;3.10;94.30
24802;DHT22;12898;50.520;12.152;2024-01-30T01:27:08;3.10;94.50
24802;DHT22;12898;50.520;12.152;2024-01-30T01:29:34;3.10;94.20
24802;DHT22;12898;50.520;12.152;2024-01-30T01:31:59;3.10;94.10
24802;DHT22;12898;50.520;12.152;2024-01-30T01:34:25;3.10;94.30
24802;DHT22;12898;50.520;12.152;2024-01-30T01:36:51;3.00;94.00
24802;DHT22;12898;50.520;12.152;2024-01-30T01:39:17;3.00;94.00
24802;DHT22;12898;50.520;12.152;2024-01-30T01:41:43;3.10;94.00
24802;DHT22;12898;50.520;12.152;2024-01-30T01:44:09;3.00;94.10
24802;DHT22;12898;50.520;12.152;2024-01-30T01:46:35;3.00;94.20
24802;DHT22;12898;50.520;12.152;2024-01-30T01:49:02;3.00;94.00
24802;DHT22;12898;50.520;12.152;2024-01-30T01:51:31;3.00;94.00
24802;DHT22;12898;50.520;12.152;2024-01-30T01:53:58;2.90;94.00
24802;DHT22;12898;50.520;12.152;2024-01-30T01:56:26;2.90;94.30
24802;DHT22;12898;50.520;12.152;2024-01-30T01:58:54;2.80;94.50
24802;DHT22;12898;50.520;12.152;2024-01-30T02:01:21;2.80;95.00
24802;DHT22;12898;50.520;12.152;2024-01-30T02:03:47;2.80;94.60
24802;DHT22;12898;50.520;12.152;2024-01-30T02:06:16;2.70;94.80
24802;DHT22;12898;50.520;12.152;2024-01-30T02:08:43;2.80;95.00
24802;DHT22;12898;50.520;12.152;2024-01-30T02:11:08;2.80;94.90
24802;DHT22;12898;50.520;12.152;2024-01-30T02:13:36;2.80;94.50
24802;DHT22;12898;50.520;12.152;2024-01-30T02:16:01;2.80;94.90
24802;DHT22;12898;50.520;12.152;2024-01-30T02:18:27;2.80;94.90
24802;DHT22;12898;50.520;12.152;2024-01-30T02:20:54;2.90;94.30
24802;DHT22;12898;50.520;12.152;2024-01-30T02:23:24;2.90;94.20
24802;DHT22;12898;50.520;12.152;2024-01-30T02:25:53;2.90;94.60
24802;DHT22;12898;50.520;12.152;2024-01-30T02:28:19;2.80;94.60
24802;DHT22;12898;50.520;12.152;2024-01-30T02:30:46;2.80;95.00
24802;DHT22;12898;50.520;12.152;2024-01-30T02:33:12;2.80;95.20
24802;DHT22;12898;50.520;12.152;2024-01-30T02:35:39;2.70;95.10
24802;DHT22;12898;50.520;12.152;2024-01-30T02:38:05;2.80;95.50
24802;DHT22;12898;50.520;12.152;2024-01-30T02:40:31;2.80;95.60
24802;DHT22;12898;50.520;12.152;2024-01-30T02:42:59;2.70;95.60
24802;DHT22;12898;50.520;12.152;2024-01-30T02:45:27;2.70;95.70
24802;DHT22;12898;50.520;12.152;2024-01-30T02:47:53;2.70;96.00
24802;DHT22;12898;50.520;12.152;2024-01-30T02:50:19;2.70;95.80
24802;DHT22;12898;50.520;12.152;2024-01-30T02:52:45;2.70;95.80
24802;DHT22;12898;50.520;12.152;2024-01-30T02:55:11;2.70;95.90
24802;DHT22;12898;50.520;12.152;2024-01-30T02:57:37;2.70;96.30
24802;DHT22;12898;50.520;12.152;2024-01-30T03:00:04;2.60;96.10
24802;DHT22;12898;50.520;12.152;2024-01-30T03:02:35;2.70;96.20
24802;DHT22;12898;50.520;12.152;2024-01-30T03:05:01;2.70;96.10
24802;DHT22;12898;50.520;12.152;2024-01-30T03:07:26;2.80;96.40
24802;DHT22;12898;50.520;12.152;2024-01-30T03:09:52;2.70;96.40
24802;DHT22;12898;50.520;12.152;2024-01-30T03:12:21;2.70;96.40
24802;DHT22;12898;50.520;12.152;2024-01-30T03:14:47;2.70;96.80
24802;DHT22;12898;50.520;12.152;2024-01-30T03:17:12;2.70;96.60
24802;DHT22;12898;50.520;12.152;2024-01-30T03:19:39;2.70;96.70
24802;DHT22;12898;50.520;12.152;2024-01-30T03:22:04;2.70;96.80
24802;DHT22;12898;50.520;12.152;2024-01-30T03:24:30;2.70;97.00
24802;DHT22;12898;50.520;12.152;2024-01-30T03:26:56;2.60;97.30
24802;DHT22;12898;50.520;12.152;2024-01-30T03:29:21;2.60;97.30
24802;DHT22;12898;50.520;12.152;2024-01-30T03:31:47;2.70;97.30
24802;DHT22;12898;50.520;12.152;2024-01-30T03:34:13;2.70;97.60
24802;DHT22;12898;50.520;12.152;2024-01-30T03:36:39;2.60;97.70
24802;DHT22;12898;50.520;12.152;2024-01-30T03:39:05;2.60;97.70
24802;DHT22;12898;50.520;12.152;2024-01-30T03:41:31;2.50;97.90
24802;DHT22;12898;50.520;12.152;2024-01-30T03:43:57;2.50;98.10
24802;DHT22;12898;50.520;12.152;2024-01-30T03:46:23;2.50;98.30
24802;DHT22;12898;50.520;12.152;2024-01-30T03:48:49;2.50;98.70
24802;DHT22;12898;50.520;12.152;2024-01-30T03:51:15;2.50;98.50
24802;DHT22;12898;50.520;12.152;2024-01-30T03:53:44;2.40;98.80
24802;DHT22;12898;50.520;12.152;2024-01-30T03:56:11;2.40;98.80
24802;DHT22;12898;50.520;12.152;2024-01-30T03:58:39;2.40;99.10
24802;DHT22;12898;50.520;12.152;2024-01-30T04:01:05;2.40;99.20
24802;DHT22;12898;50.520;12.152;2024-01-30T04:03:31;2.40;99.10
24802;DHT22;12898;50.520;12.152;2024-01-30T04:05:56;2.40;99.20
24802;DHT22;12898;50.520;12.152;2024-01-30T04:08:22;2.40;99.10
24802;DHT22;12898;50.520;12.152;2024-01-30T04:10:48;2.40;99.20
24802;DHT22;12898;50.520;12.152;2024-01-30T04:13:14;2.40;99.30
24802;DHT22;12898;50.520;12.152;2024-01-30T04:15:40;2.40;99.10
24802;DHT22;12898;50.520;12.152;2024-01-30T04:18:06;2.30;99.10
24802;DHT22;12898;50.520;12.152;2024-01-30T04:20:31;2.30;99.50
24802;DHT22;12898;50.520;12.152;2024-01-30T04:22:57;2.30;99.60
24802;DHT22;12898;50.520;12.152;2024-01-30T04:25:23;2.20;99.90
24802;DHT22;12898;50.520;12.152;2024-01-30T04:27:49;2.20;99.80
24802;DHT22;12898;50.520;12.152;2024-01-30T04:30:15;2.20;99.90
24802;DHT22;12898;50.520;12.152;2024-01-30T04:32:40;2.20;99.90
24802;DHT22;12898;50.520;12.152;2024-01-30T04:35:06;2.20;99.80
24802;DHT22;12898;50.520;12.152;2024-01-30T04:37:32;2.20;99.90
24802;DHT22;12898;50.520;12.152;2024-01-30T04:39:58;2.20;99.80
24802;DHT22;12898;50.520;12.152;2024-01-30T04:42:23;2.20;99.60
24802;DHT22;12898;50.520;12.152;2024-01-30T04:44:49;2.20;99.50
24802;DHT22;12898;50.520;12.152;2024-01-30T04:47:15;2.20;99.60
24802;DHT22;12898;50.520;12.152;2024-01-30T04:49:41;2.20;99.70
24802;DHT22;12898;50.520;12.152;2024-01-30T04:52:08;2.30;99.20
24802;DHT22;12898;50.520;12.152;2024-01-30T04:54:36;2.30;99.10
24802;DHT22;12898;50.520;12.152;2024-01-30T04:57:03;2.40;99.10
24802;DHT22;12898;50.520;12.152;2024-01-30T04:59:28;2.40;98.90
24802;DHT22;12898;50.520;12.152;2024-01-30T05:01:54;2.30;99.00
24802;DHT22;12898;50.520;12.152;2024-01-30T05:04:20;2.30;99.20
24802;DHT22;12898;50.520;12.152;2024-01-30T05:06:46;2.30;99.30
24802;DHT22;12898;50.520;12.152;2024-01-30T05:09:12;2.40;99.20
24802;DHT22;12898;50.520;12.152;2024-01-30T05:11:39;2.40;99.20
24802;DHT22;12898;50.520;12.152;2024-01-30T05:14:05;2.40;99.00
24802;DHT22;12898;50.520;12.152;2024-01-30T05:16:32;2.40;99.20
24802;DHT22;12898;50.520;12.152;2024-01-30T05:18:58;2.40;99.10
24802;DHT22;12898;50.520;12.152;2024-01-30T05:21:24;2.40;99.50
24802;DHT22;12898;50.520;12.152;2024-01-30T05:23:50;2.40;99.10
24802;DHT22;12898;50.520;12.152;2024-01-30T05:26:15;2.50;99.00
24802;DHT22;12898;50.520;12.152;2024-01-30T05:28:41;2.50;99.10
24802;DHT22;12898;50.520;12.152;2024-01-30T05:31:10;2.50;99.30
24802;DHT22;12898;50.520;12.152;2024-01-30T05:33:35;2.50;99.20
24802;DHT22;12898;50.520;12.152;2024-01-30T05:36:02;2.50;99.20
24802;DHT22;12898;50.520;12.152;2024-01-30T05:38:28;2.50;99.10
24802;DHT22;12898;50.520;12.152;2024-01-30T05:40:53;2.50;99.10
24802;DHT22;12898;50.520;12.152;2024-01-30T05:43:19;2.50;99.40
24802;DHT22;12898;50.520;12.152;2024-01-30T05:45:45;2.50;99.30
24802;DHT22;12898;50.520;12.152;2024-01-30T05:48:11;2.50;99.20
24802;DHT22;12898;50.520;12.152;2024-01-30T05:50:36;2.60;99.30
24802;DHT22;12898;50.520;12.152;2024-01-30T05:53:02;2.60;98.90
24802;DHT22;12898;50.520;12.152;2024-01-30T05:55:28;2.70;99.10
24802;DHT22;12898;50.520;12.152;2024-01-30T05:57:53;2.70;98.80
24802;DHT22;12898;50.520;12.152;2024-01-30T06:00:19;2.70;98.60
24802;DHT22;12898;50.520;12.152;2024-01-30T06:02:45;2.70;98.90
24802;DHT22;12898;50.520;12.152;2024-01-30T06:05:11;2.70;98.60
24802;DHT22;12898;50.520;12.152;2024-01-30T06:07:36;2.70;98.40
24802;DHT22;12898;50.520;12.152;2024-01-30T06:10:02;2.70;98.60
24802;DHT22;12898;50.520;12.152;2024-01-30T06:12:28;2.80;98.40
24802;DHT22;12898;50.520;12.152;2024-01-30T06:14:54;2.80;98.50
24802;DHT22;12898;50.520;12.152;2024-01-30T06:17:22;2.80;98.60
24802;DHT22;12898;50.520;12.152;2024-01-30T06:19:49;2.80;98.60
24802;DHT22;12898;50.520;12.152;2024-01-30T06:22:15;2.80;98.70
24802;DHT22;12898;50.520;12.152;2024-01-30T06:24:41;2.80;98.70
24802;DHT22;12898;50.520;12.152;2024-01-30T06:27:07;2.80;98.90
24802;DHT22;12898;50.520;12.152;2024-01-30T06:29:32;2.80;99.10
24802;DHT22;12898;50.520;12.152;2024-01-30T06:31:58;2.70;99.20
24802;DHT22;12898;50.520;12.152;2024-01-30T06:34:24;2.70;99.30
24802;DHT22;12898;50.520;12.152;2024-01-30T06:36:51;2.60;99.80
24802;DHT22;12898;50.520;12.152;2024-01-30T06:39:17;2.60;99.90
24802;DHT22;12898;50.520;12.152;2024-01-30T06:41:43;2.60;99.90
24802;DHT22;12898;50.520;12.152;2024-01-30T06:44:11;2.60;99.90
24802;DHT22;12898;50.520;12.152;2024-01-30T06:46:38;2.60;99.90
24802;DHT22;12898;50.520;12.152;2024-01-30T06:49:04;2.50;99.90
24802;DHT22;12898;50.520;12.152;2024-01-30T06:51:30;2.60;99.90
24802;DHT22;12898;50.520;12.152;2024-01-30T06:53:55;2.50;99.90
24802;DHT22;12898;50.520;12.152;2024-01-30T06:56:21;2.50;99.90
24802;DHT22;12898;50.520;12.152;2024-01-30T06:58:51;2.50;99.90
24802;DHT22;12898;50.520;12.152;2024-01-30T07:01:17;2.50;99.90
24802;DHT22;12898;50.520;12.152;2024-01-30T07:03:43;2.40;99.90
24802;DHT22;12898;50.520;12.152;2024-01-30T07:06:09;2.40;99.90
24802;DHT22;12898;50.520;12.152;2024-01-30T07:08:36;2.40;99.90
24802;DHT22;12898;50.520;12.152;2024-01-30T07:11:04;2.40;99.90
24802;DHT22;12898;50.520;12.152;2024-01-30T07:13:31;2.40;99.90
24802;DHT22;12898;50.520;12.152;2024-01-30T07:15:58;2.50;99.90
24802;DHT22;12898;50.520;12.152;2024-01-30T07:18:23;2.50;99.90
24802;DHT22;12898;50.520;12.152;2024-01-30T07:20:49;2.60;99.90
24802;DHT22;12898;50.520;12.152;2024-01-30T07:23:15;2.60;99.90
24802;DHT22;12898;50.520;12.152;2024-01-30T07:25:45;2.70;99.90
24802;DHT22;12898;50.520;12.152;2024-01-30T07:28:14;2.80;99.90
24802;DHT22;12898;50.520;12.152;2024-01-30T07:30:42;2.80;99.90
24802;DHT22;12898;50.520;12.152;2024-01-30T07:33:08;2.90;99.90
24802;DHT22;12898;50.520;12.152;2024-01-30T07:35:35;3.00;99.90
24802;DHT22;12898;50.520;12.152;2024-01-30T07:38:01;3.00;99.90
24802;DHT22;12898;50.520;12.152;2024-01-30T07:40:27;3.00;99.90
24802;DHT22;12898;50.520;12.152;2024-01-30T07:42:53;3.00;99.90
24802;DHT22;12898;50.520;12.152;2024-01-30T07:45:23;3.00;99.90
24802;DHT22;12898;50.520;12.152;2024-01-30T07:47:50;2.90;99.90
24802;DHT22;12898;50.520;12.152;2024-01-30T07:50:16;3.00;99.90
24802;DHT22;12898;50.520;12.152;2024-01-30T07:52:43;3.00;99.90
24802;DHT22;12898;50.520;12.152;2024-01-30T07:55:08;3.00;99.90
24802;DHT22;12898;50.520;12.152;2024-01-30T07:57:34;3.10;99.90
24802;DHT22;12898;50.520;12.152;2024-01-30T08:00:01;3.10;99.90
24802;DHT22;12898;50.520;12.152;2024-01-30T08:02:28;3.20;99.80
24802;DHT22;12898;50.520;12.152;2024-01-30T08:04:54;3.20;99.80
24802;DHT22;12898;50.520;12.152;2024-01-30T08:07:19;3.30;99.20
24802;DHT22;12898;50.520;12.152;2024-01-30T08:09:47;3.30;98.70
24802;DHT22;12898;50.520;12.152;2024-01-30T08:12:13;3.40;99.00
24802;DHT22;12898;50.520;12.152;2024-01-30T08:14:39;3.40;99.00
24802;DHT22;12898;50.520;12.152;2024-01-30T08:17:06;3.50;98.70
24802;DHT22;12898;50.520;12.152;2024-01-30T08:19:33;3.50;98.50
24802;DHT22;12898;50.520;12.152;2024-01-30T08:21:59;3.60;98.60
24802;DHT22;12898;50.520;12.152;2024-01-30T08:24:24;3.60;98.60
24802;DHT22;12898;50.520;12.152;2024-01-30T08:26:50;3.70;98.30
24802;DHT22;12898;50.520;12.152;2024-01-30T08:29:16;3.80;98.30
24802;DHT22;12898;50.520;12.152;2024-01-30T08:31:41;3.80;98.40
24802;DHT22;12898;50.520;12.152;2024-01-30T08:34:07;3.90;97.60
24802;DHT22;12898;50.520;12.152;2024-01-30T08:36:33;3.90;97.50
24802;DHT22;12898;50.520;12.152;2024-01-30T08:38:59;4.00;97.50
24802;DHT22;12898;50.520;12.152;2024-01-30T08:41:24;4.10;97.40
24802;DHT22;12898;50.520;12.152;2024-01-30T08:43:51;4.10;97.20
24802;DHT22;12898;50.520;12.152;2024-01-30T08:46:18;4.20;96.70
24802;DHT22;12898;50.520;12.152;2024-01-30T08:48:44;4.30;96.60
24802;DHT22;12898;50.520;12.152;2024-01-30T08:51:10;4.30;96.30
24802;DHT22;12898;50.520;12.152;2024-01-30T08:53:36;4.30;95.30
24802;DHT22;12898;50.520;12.152;2024-01-30T08:56:03;4.40;95.70
24802;DHT22;12898;50.520;12.152;2024-01-30T08:58:29;4.50;95.40
24802;DHT22;12898;50.520;12.152;2024-01-30T09:00:55;4.50;95.00
24802;DHT22;12898;50.520;12.152;2024-01-30T09:03:21;4.60;95.50
24802;DHT22;12898;50.520;12.152;2024-01-30T09:05:47;4.60;95.30
24802;DHT22;12898;50.520;12.152;2024-01-30T09:08:13;4.60;95.20
24802;DHT22;12898;50.520;12.152;2024-01-30T09:10:39;4.60;95.20
24802;DHT22;12898;50.520;12.152;2024-01-30T09:13:04;4.70;95.20
24802;DHT22;12898;50.520;12.152;2024-01-30T09:15:30;4.70;95.40
24802;DHT22;12898;50.520;12.152;2024-01-30T09:17:56;4.70;94.90
24802;DHT22;12898;50.520;12.152;2024-01-30T09:20:21;4.80;94.80
24802;DHT22;12898;50.520;12.152;2024-01-30T09:22:48;4.90;94.70
24802;DHT22;12898;50.520;12.152;2024-01-30T09:25:15;4.90;95.20
24802;DHT22;12898;50.520;12.152;2024-01-30T09:27:40;5.00;94.50
24802;DHT22;12898;50.520;12.152;2024-01-30T09:30:07;5.20;94.30
24802;DHT22;12898;50.520;12.152;2024-01-30T09:32:33;5.20;94.20
24802;DHT22;12898;50.520;12.152;2024-01-30T09:34:58;5.30;94.20
24802;DHT22;12898;50.520;12.152;2024-01-30T09:37:24;5.40;94.20
24802;DHT22;12898;50.520;12.152;2024-01-30T09:39:50;5.40;94.30
24802;DHT22;12898;50.520;12.152;2024-01-30T09:42:35;5.50;94.00
24802;DHT22;12898;50.520;12.152;2024-01-30T09:45:02;5.70;94.20
24802;DHT22;12898;50.520;12.152;2024-01-30T09:47:41;5.90;94.00
24802;DHT22;12898;50.520;12.152;2024-01-30T09:50:09;6.10;93.30
24802;DHT22;12898;50.520;12.152;2024-01-30T09:52:36;6.40;92.80
24802;DHT22;12898;50.520;12.152;2024-01-30T09:55:03;6.60;92.60
24802;DHT22;12898;50.520;12.152;2024-01-30T09:57:29;6.80;91.70
24802;DHT22;12898;50.520;12.152;2024-01-30T09:59:55;6.90;91.20
24802;DHT22;12898;50.520;12.152;2024-01-30T10:02:21;7.00;91.40
24802;DHT22;12898;50.520;12.152;2024-01-30T10:04:48;7.10;90.40
24802;DHT22;12898;50.520;12.152;2024-01-30T10:07:15;7.10;90.40
24802;DHT22;12898;50.520;12.152;2024-01-30T10:09:45;7.10;90.70
24802;DHT22;12898;50.520;12.152;2024-01-30T10:12:12;7.10;90.80
24802;DHT22;12898;50.520;12.152;2024-01-30T10:14:41;7.20;90.20
24802;DHT22;12898;50.520;12.152;2024-01-30T10:17:08;7.20;90.00
24802;DHT22;12898;50.520;12.152;2024-01-30T10:19:36;7.40;90.30
24802;DHT22;12898;50.520;12.152;2024-01-30T10:22:03;7.50;90.10
24802;DHT22;12898;50.520;12.152;2024-01-30T10:24:29;7.50;89.00
24802;DHT22;12898;50.520;12.152;2024-01-30T10:26:55;7.60;89.30
24802;DHT22;12898;50.520;12.152;2024-01-30T10:29:21;7.60;87.50
24802;DHT22;12898;50.520;12.152;2024-01-30T10:32:00;7.60;87.70
24802;DHT22;12898;50.520;12.152;2024-01-30T10:34:27;7.60;88.10
24802;DHT22;12898;50.520;12.152;2024-01-30T10:37:13;7.60;87.90
24802;DHT22;12898;50.520;12.152;2024-01-30T10:39:42;7.50;87.80
24802;DHT22;12898;50.520;12.152;2024-01-30T10:42:18;7.40;87.60
24802;DHT22;12898;50.520;12.152;2024-01-30T10:47:29;7.20;87.90
24802;DHT22;12898;50.520;12.152;2024-01-30T10:49:56;7.10;88.10
24802;DHT22;12898;50.520;12.152;2024-01-30T10:52:25;7.10;89.40
24802;DHT22;12898;50.520;12.152;2024-01-30T10:54:53;7.20;89.20
24802;DHT22;12898;50.520;12.152;2024-01-30T10:57:19;7.30;89.60
24802;DHT22;12898;50.520;12.152;2024-01-30T10:59:47;7.30;89.40
24802;DHT22;12898;50.520;12.152;2024-01-30T11:02:14;7.40;89.40
24802;DHT22;12898;50.520;12.152;2024-01-30T11:04:43;7.50;88.90
24802;DHT22;12898;50.520;12.152;2024-01-30T11:07:23;7.50;88.20
24802;DHT22;12898;50.520;12.152;2024-01-30T11:09:54;7.50;89.30
24802;DHT22;12898;50.520;12.152;2024-01-30T11:12:29;7.40;89.10
24802;DHT22;12898;50.520;12.152;2024-01-30T11:15:10;7.50;89.00
24802;DHT22;12898;50.520;12.152;2024-01-30T11:20:28;7.60;88.60
24802;DHT22;12898;50.520;12.152;2024-01-30T11:22:57;7.70;89.20
24802;DHT22;12898;50.520;12.152;2024-01-30T11:25:24;7.70;88.50
24802;DHT22;12898;50.520;12.152;2024-01-30T11:27:52;7.60;88.00
24802;DHT22;12898;50.520;12.152;2024-01-30T11:30:22;7.60;88.80
24802;DHT22;12898;50.520;12.152;2024-01-30T11:33:01;7.60;88.90
24802;DHT22;12898;50.520;12.152;2024-01-30T11:35:34;7.70;89.90
24802;DHT22;12898;50.520;12.152;2024-01-30T11:38:02;7.80;89.20
24802;DHT22;12898;50.520;12.152;2024-01-30T11:40:29;7.90;89.60
24802;DHT22;12898;50.520;12.152;2024-01-30T11:42:56;8.00;88.30
24802;DHT22;12898;50.520;12.152;2024-01-30T11:45:23;8.10;87.70
24802;DHT22;12898;50.520;12.152;2024-01-30T11:47:49;8.30;87.70
24802;DHT22;12898;50.520;12.152;2024-01-30T11:50:15;8.50;87.60
24802;DHT22;12898;50.520;12.152;2024-01-30T11:52:41;8.60;87.20
24802;DHT22;12898;50.520;12.152;2024-01-30T11:55:09;8.70;87.90
24802;DHT22;12898;50.520;12.152;2024-01-30T11:57:35;8.80;87.70
24802;DHT22;12898;50.520;12.152;2024-01-30T12:00:03;8.90;87.00
24802;DHT22;12898;50.520;12.152;2024-01-30T12:02:38;9.10;86.90
24802;DHT22;12898;50.520;12.152;2024-01-30T12:05:05;9.20;85.10
24802;DHT22;12898;50.520;12.152;2024-01-30T12:07:32;9.30;85.30
24802;DHT22;12898;50.520;12.152;2024-01-30T12:09:58;9.40;84.50
24802;DHT22;12898;50.520;12.152;2024-01-30T12:12:27;9.50;85.00
24802;DHT22;12898;50.520;12.152;2024-01-30T12:14:55;9.50;83.10
24802;DHT22;12898;50.520;12.152;2024-01-30T12:17:39;9.50;84.00
24802;DHT22;12898;50.520;12.152;2024-01-30T12:20:07;9.50;84.30
24802;DHT22;12898;50.520;12.152;2024-01-30T12:22:44;9.50;84.50
24802;DHT22;12898;50.520;12.152;2024-01-30T12:25:16;9.60;84.80
24802;DHT22;12898;50.520;12.152;2024-01-30T12:27:44;9.70;84.40
24802;DHT22;12898;50.520;12.152;2024-01-30T12:30:12;9.70;82.60
24802;DHT22;12898;50.520;12.152;2024-01-30T12:32:41;9.60;84.80
24802;DHT22;12898;50.520;12.152;2024-01-30T12:35:12;9.60;84.60
24802;DHT22;12898;50.520;12.152;2024-01-30T12:37:38;9.50;83.50
24802;DHT22;12898;50.520;12.152;2024-01-30T12:40:06;9.50;84.50
24802;DHT22;12898;50.520;12.152;2024-01-30T12:42:32;9.40;83.70
24802;DHT22;12898;50.520;12.152;2024-01-30T12:44:58;9.50;84.90
24802;DHT22;12898;50.520;12.152;2024-01-30T12:47:24;9.60;85.00
24802;DHT22;12898;50.520;12.152;2024-01-30T12:49:50;9.70;83.80
24802;DHT22;12898;50.520;12.152;2024-01-30T12:52:20;9.60;84.10
24802;DHT22;12898;50.520;12.152;2024-01-30T12:54:50;9.60;84.30
24802;DHT22;12898;50.520;12.152;2024-01-30T12:57:16;9.60;84.50
24802;DHT22;12898;50.520;12.152;2024-01-30T12:59:42;9.70;84.40
24802;DHT22;12898;50.520;12.152;2024-01-30T13:02:09;9.60;84.30
24802;DHT22;12898;50.520;12.152;2024-01-30T13:04:34;9.60;84.30
24802;DHT22;12898;50.520;12.152;2024-01-30T13:07:01;9.50;85.20
24802;DHT22;12898;50.520;12.152;2024-01-30T13:09:27;9.40;85.70
24802;DHT22;12898;50.520;12.152;2024-01-30T13:11:53;9.40;86.00
24802;DHT22;12898;50.520;12.152;2024-01-30T13:14:19;9.30;85.50
24802;DHT22;12898;50.520;12.152;2024-01-30T13:16:45;9.20;86.20
24802;DHT22;12898;50.520;12.152;2024-01-30T13:19:11;9.20;86.50
24802;DHT22;12898;50.520;12.152;2024-01-30T13:21:37;9.20;86.70
24802;DHT22;12898;50.520;12.152;2024-01-30T13:24:03;9.20;87.80
24802;DHT22;12898;50.520;12.152;2024-01-30T13:26:31;9.30;86.40
24802;DHT22;12898;50.520;12.152;2024-01-30T13:28:57;9.30;86.20
24802;DHT22;12898;50.520;12.152;2024-01-30T13:31:23;9.40;86.10
24802;DHT22;12898;50.520;12.152;2024-01-30T13:33:48;9.30;85.50
24802;DHT22;12898;50.520;12.152;2024-01-30T13:36:14;9.20;86.40
24802;DHT22;12898;50.520;12.152;2024-01-30T13:38:40;9.10;86.90
24802;DHT22;12898;50.520;12.152;2024-01-30T13:41:06;9.00;86.80
24802;DHT22;12898;50.520;12.152;2024-01-30T13:43:32;9.00;87.60
24802;DHT22;12898;50.520;12.152;2024-01-30T13:45:58;9.00;88.20
24802;DHT22;12898;50.520;12.152;2024-01-30T13:48:24;9.10;88.60
24802;DHT22;12898;50.520;12.152;2024-01-30T13:50:50;9.20;87.10
24802;DHT22;12898;50.520;12.152;2024-01-30T13:53:16;9.30;87.70
24802;DHT22;12898;50.520;12.152;2024-01-30T13:55:41;9.30;87.20
24802;DHT22;12898;50.520;12.152;2024-01-30T13:58:07;9.30;86.20
24802;DHT22;12898;50.520;12.152;2024-01-30T14:00:33;9.30;86.60
24802;DHT22;12898;50.520;12.152;2024-01-30T14:02:59;9.10;86.40
24802;DHT22;12898;50.520;12.152;2024-01-30T14:05:28;9.00;86.00
24802;DHT22;12898;50.520;12.152;2024-01-30T14:07:54;8.80;87.50
24802;DHT22;12898;50.520;12.152;2024-01-30T14:10:20;8.60;88.20
24802;DHT22;12898;50.520;12.152;2024-01-30T14:12:46;8.50;88.80
24802;DHT22;12898;50.520;12.152;2024-01-30T14:15:15;8.50;89.70
24802;DHT22;12898;50.520;12.152;2024-01-30T14:17:44;8.40;90.10
24802;DHT22;12898;50.520;12.152;2024-01-30T14:20:15;8.30;90.10
24802;DHT22;12898;50.520;12.152;2024-01-30T14:22:44;8.30;90.50
24802;DHT22;12898;50.520;12.152;2024-01-30T14:25:10;8.30;90.60
24802;DHT22;12898;50.520;12.152;2024-01-30T14:27:36;8.30;90.90
24802;DHT22;12898;50.520;12.152;2024-01-30T14:30:02;8.30;91.00
24802;DHT22;12898;50.520;12.152;2024-01-30T14:32:28;8.30;91.10
24802;DHT22;12898;50.520;12.152;2024-01-30T14:34:54;8.20;91.40
24802;DHT22;12898;50.520;12.152;2024-01-30T14:37:21;8.30;91.50
24802;DHT22;12898;50.520;12.152;2024-01-30T14:39:47;8.30;91.50
24802;DHT22;12898;50.520;12.152;2024-01-30T14:42:14;8.20;91.70
24802;DHT22;12898;50.520;12.152;2024-01-30T14:44:41;8.20;91.70
24802;DHT22;12898;50.520;12.152;2024-01-30T14:47:07;8.10;91.90
24802;DHT22;12898;50.520;12.152;2024-01-30T14:49:33;8.00;92.10
24802;DHT22;12898;50.520;12.152;2024-01-30T14:51:59;7.90;92.40
24802;DHT22;12898;50.520;12.152;2024-01-30T14:54:26;7.80;92.50
24802;DHT22;12898;50.520;12.152;2024-01-30T14:56:52;7.70;92.90
24802;DHT22;12898;50.520;12.152;2024-01-30T14:59:18;7.60;92.90
24802;DHT22;12898;50.520;12.152;2024-01-30T15:01:44;7.60;92.90
24802;DHT22;12898;50.520;12.152;2024-01-30T15:04:10;7.60;93.20
24802;DHT22;12898;50.520;12.152;2024-01-30T15:06:36;7.40;93.10
24802;DHT22;12898;50.520;12.152;2024-01-30T15:09:02;7.30;93.50
24802;DHT22;12898;50.520;12.152;2024-01-30T15:11:28;7.30;93.70
24802;DHT22;12898;50.520;12.152;2024-01-30T15:13:54;7.20;94.00
24802;DHT22;12898;50.520;12.152;2024-01-30T15:16:20;7.10;94.40
24802;DHT22;12898;50.520;12.152;2024-01-30T15:18:45;7.10;94.60
24802;DHT22;12898;50.520;12.152;2024-01-30T15:21:11;7.10;94.70
24802;DHT22;12898;50.520;12.152;2024-01-30T15:23:37;7.10;94.90
24802;DHT22;12898;50.520;12.152;2024-01-30T15:26:03;7.00;95.20
24802;DHT22;12898;50.520;12.152;2024-01-30T15:28:36;7.00;95.30
24802;DHT22;12898;50.520;12.152;2024-01-30T15:31:03;7.00;95.50
24802;DHT22;12898;50.520;12.152;2024-01-30T15:33:29;6.90;95.80